createdAt,value
2022-08-11T00:01:34.683Z,9.02
2022-08-11T00:04:21.574Z,5.50
2022-08-11T00:06:53.837Z,6.60
2022-08-11T00:09:40.662Z,5.93
2022-08-11T00:12:27.620Z,4.05
2022-08-11T00:17:47.274Z,5.70
2022-08-11T00:20:21.667Z,10.13
2022-08-11T00:23:06.400Z,7.05
2022-08-11T00:25:51.522Z,5.07
2022-08-11T00:28:45.938Z,4.00
2022-08-11T00:31:36.139Z,8.38
2022-08-11T00:34:12.397Z,4.65
2022-08-11T00:36:55.433Z,4.65
2022-08-11T00:39:29.289Z,5.82
2022-08-11T00:42:24.713Z,6.28
2022-08-11T00:45:16.135Z,6.80
2022-08-11T00:48:37.080Z,2.97
2022-08-11T00:51:56.611Z,4.97
2022-08-11T00:54:59.507Z,5.00
2022-08-11T00:58:02.988Z,5.20
2022-08-11T01:01:18.556Z,3.83
2022-08-11T01:04:24.905Z,3.60
2022-08-11T01:08:00.574Z,5.10
2022-08-11T01:10:54.799Z,9.85
2022-08-11T01:13:58.435Z,4.93
2022-08-11T01:16:56.880Z,5.32
2022-08-11T01:20:45.868Z,6.03
2022-08-11T01:23:34.357Z,5.40
2022-08-11T01:26:28.846Z,5.53
2022-08-11T01:29:25.356Z,5.45
2022-08-11T01:32:43.230Z,5.10
2022-08-11T01:35:32.406Z,4.85
2022-08-11T01:38:40.254Z,4.88
2022-08-11T01:41:55.613Z,5.95
2022-08-11T01:44:47.510Z,3.97
2022-08-11T01:47:54.656Z,3.33
2022-08-11T01:50:45.985Z,3.53
2022-08-11T01:53:47.502Z,5.00
2022-08-11T01:56:51.607Z,3.70
2022-08-11T01:59:50.774Z,8.00
2022-08-11T02:02:51.833Z,2.97
2022-08-11T02:05:42.758Z,5.72
2022-08-11T02:08:37.010Z,5.07
2022-08-11T02:11:42.811Z,7.45
2022-08-11T02:14:57.264Z,6.22
2022-08-11T02:18:03.790Z,7.50
2022-08-11T02:21:18.661Z,6.68
2022-08-11T02:24:19.637Z,5.65
2022-08-11T02:27:04.323Z,6.30
2022-08-11T02:29:44.209Z,4.00
2022-08-11T02:33:15.682Z,3.92
2022-08-11T02:35:48.739Z,6.35
2022-08-11T02:38:54.670Z,4.50
2022-08-11T02:42:42.162Z,5.25
2022-08-11T02:48:24.065Z,7.10
2022-08-11T02:51:21.316Z,4.60
2022-08-11T02:54:09.390Z,4.55
2022-08-11T02:56:57.573Z,5.75
2022-08-11T03:00:00.041Z,4.85
2022-08-11T03:03:00.461Z,5.40
2022-08-11T03:06:19.652Z,5.07
2022-08-11T03:09:34.078Z,6.28
2022-08-11T03:13:08.601Z,3.45
2022-08-11T03:16:13.798Z,6.32
2022-08-11T03:19:09.565Z,7.88
2022-08-11T03:22:06.353Z,6.10
2022-08-11T03:25:03.953Z,5.50
2022-08-11T03:27:54.806Z,4.65
2022-08-11T03:30:32.373Z,4.13
2022-08-11T03:33:49.008Z,4.32
2022-08-11T03:37:06.789Z,6.22
2022-08-11T03:40:02.623Z,5.50
2022-08-11T03:43:07.850Z,6.35
2022-08-11T03:46:06.052Z,5.35
2022-08-11T03:49:21.565Z,7.47
2022-08-11T03:52:20.462Z,6.88
2022-08-11T03:55:14.895Z,6.28
2022-08-11T03:58:16.283Z,5.65
2022-08-11T04:01:24.333Z,5.13
2022-08-11T04:04:00.949Z,7.20
2022-08-11T04:06:55.511Z,7.20
2022-08-11T04:10:01.931Z,11.27
2022-08-11T04:12:58.815Z,5.68
2022-08-11T04:16:12.184Z,4.93
2022-08-11T04:19:13.928Z,8.13
2022-08-11T04:22:24.426Z,8.38
2022-08-11T04:25:55.880Z,8.52
2022-08-11T04:28:52.474Z,6.65
2022-08-11T04:31:56.610Z,7.85
2022-08-11T04:35:00.890Z,8.88
2022-08-11T04:38:00.026Z,7.10
2022-08-11T04:41:05.206Z,7.03
2022-08-11T04:44:11.290Z,8.63
2022-08-11T04:48:01.731Z,10.70
2022-08-11T04:51:17.470Z,8.68
2022-08-11T04:54:28.292Z,7.53
2022-08-11T04:57:26.998Z,8.38
2022-08-11T05:00:31.133Z,7.60
2022-08-11T05:03:29.628Z,8.98
2022-08-11T05:06:52.120Z,5.50
2022-08-11T05:09:38.081Z,5.80
2022-08-11T05:12:37.625Z,9.43
2022-08-11T05:15:42.540Z,6.05
2022-08-11T05:18:46.893Z,8.05
2022-08-11T05:21:44.401Z,9.18
2022-08-11T05:24:47.455Z,10.30
2022-08-11T05:27:42.815Z,13.30
2022-08-11T05:30:39.378Z,11.38
2022-08-11T05:33:43.366Z,10.80
2022-08-11T05:37:26.226Z,9.48
2022-08-11T05:40:36.974Z,7.55
2022-08-11T05:43:33.227Z,8.73
2022-08-11T05:46:27.636Z,10.13
2022-08-11T05:49:18.168Z,6.22
2022-08-11T05:52:12.978Z,8.07
2022-08-11T05:55:08.222Z,9.70
2022-08-11T05:57:51.279Z,9.52
2022-08-11T06:00:29.754Z,9.60
2022-08-11T06:03:31.633Z,8.48
2022-08-11T06:06:10.568Z,6.07
2022-08-11T06:08:39.335Z,7.90
2022-08-11T06:11:09.247Z,4.93
2022-08-11T06:13:45.506Z,10.05
2022-08-11T06:16:18.394Z,10.40
2022-08-11T06:19:04.637Z,6.43
2022-08-11T06:21:40.314Z,5.03
2022-08-11T06:24:18.585Z,8.07
2022-08-11T06:27:11.922Z,4.13
2022-08-11T06:29:54.867Z,8.52
2022-08-11T06:32:31.266Z,5.03
2022-08-11T06:35:26.103Z,5.88
2022-08-11T06:38:22.948Z,6.13
2022-08-11T06:41:14.991Z,4.00
2022-08-11T06:44:16.090Z,8.90
2022-08-11T06:47:05.812Z,9.13
2022-08-11T06:50:01.062Z,5.60
2022-08-11T06:55:56.762Z,4.22
2022-08-11T06:59:02.270Z,8.90
2022-08-11T07:01:53.248Z,8.95
2022-08-11T07:04:50.434Z,5.78
2022-08-11T07:08:34.798Z,4.32
2022-08-11T07:11:48.063Z,3.17
2022-08-11T07:15:00.229Z,5.47
2022-08-11T07:18:13.298Z,4.82
2022-08-11T07:21:04.829Z,3.75
2022-08-11T07:24:22.573Z,10.15
2022-08-11T07:27:37.764Z,6.15
2022-08-11T07:30:12.693Z,3.47
2022-08-11T07:32:51.109Z,3.30
2022-08-11T07:35:36.744Z,5.72
2022-08-11T07:40:40.841Z,5.75
2022-08-11T07:43:12.539Z,7.53
2022-08-11T07:46:06.294Z,3.90
2022-08-11T07:48:57.087Z,6.88
2022-08-11T07:51:45.859Z,4.75
2022-08-11T07:54:18.286Z,10.48
2022-08-11T07:56:54.888Z,7.30
2022-08-11T08:00:03.740Z,3.65
2022-08-11T08:03:13.702Z,9.23
2022-08-11T08:06:03.055Z,8.52
2022-08-11T08:09:14.621Z,5.13
2022-08-11T08:12:03.276Z,4.47
2022-08-11T08:14:52.084Z,6.80
2022-08-11T08:17:41.344Z,5.45
2022-08-11T08:20:22.147Z,7.57
2022-08-11T08:22:58.025Z,5.85
2022-08-11T08:25:36.568Z,6.30
2022-08-11T08:28:10.554Z,3.83
2022-08-11T08:30:47.852Z,3.95
2022-08-11T08:33:24.936Z,3.15
2022-08-11T08:36:19.854Z,4.05
2022-08-11T08:38:54.840Z,8.88
2022-08-11T08:41:40.752Z,6.93
2022-08-11T08:44:38.986Z,5.30
2022-08-11T08:47:15.014Z,9.77
2022-08-11T08:50:18.761Z,3.80
2022-08-11T08:53:03.132Z,2.72
2022-08-11T08:55:34.217Z,4.05
2022-08-11T08:58:03.172Z,5.60
2022-08-11T09:00:44.181Z,3.00
2022-08-11T09:03:39.403Z,5.03
2022-08-11T09:06:04.490Z,3.00
2022-08-11T09:08:42.227Z,1.58
2022-08-11T09:11:32.288Z,6.38
2022-08-11T09:14:08.235Z,7.65
2022-08-11T09:16:40.474Z,4.90
2022-08-11T09:19:13.711Z,1.88
2022-08-11T09:21:49.471Z,6.90
2022-08-11T09:24:39.428Z,11.27
2022-08-11T09:27:16.051Z,4.07
2022-08-11T09:29:45.633Z,3.30
2022-08-11T09:32:26.529Z,1.83
2022-08-11T09:34:57.057Z,4.57
2022-08-11T09:38:06.202Z,4.30
2022-08-11T09:40:37.648Z,4.95
2022-08-11T09:43:29.445Z,3.22
2022-08-11T09:46:03.814Z,3.28
2022-08-11T09:48:40.065Z,5.57
2022-08-11T09:51:16.479Z,2.05
2022-08-11T09:54:04.103Z,6.53
2022-08-11T09:56:52.261Z,4.43
2022-08-11T09:59:22.098Z,5.32
2022-08-11T10:02:14.608Z,4.95
2022-08-11T10:04:59.057Z,4.88
2022-08-11T10:07:32.073Z,4.45
2022-08-11T10:10:13.038Z,3.63
2022-08-11T10:14:03.681Z,6.43
2022-08-11T10:16:15.909Z,2.73
2022-08-11T10:18:57.857Z,4.22
2022-08-11T10:22:07.797Z,2.13
2022-08-11T10:24:54.335Z,2.47
2022-08-11T10:27:28.984Z,2.45
2022-08-11T10:30:35.962Z,5.55
2022-08-11T10:33:37.651Z,5.03
2022-08-11T10:36:16.401Z,4.78
2022-08-11T10:38:52.264Z,1.88
2022-08-11T10:42:08.420Z,4.50
2022-08-11T10:44:36.637Z,4.10
2022-08-11T10:47:28.282Z,3.85
2022-08-11T10:50:20.322Z,3.65
2022-08-11T10:53:09.863Z,2.28
2022-08-11T10:55:58.987Z,2.88
2022-08-11T10:58:50.599Z,5.22
2022-08-11T11:01:34.189Z,2.45
2022-08-11T11:04:28.943Z,5.15
2022-08-11T11:07:26.129Z,1.98
2022-08-11T11:10:04.712Z,6.90
2022-08-11T11:13:00.326Z,2.58
2022-08-11T11:15:52.325Z,1.88
2022-08-11T11:18:37.464Z,4.30
2022-08-11T11:21:10.216Z,5.47
2022-08-11T11:24:20.918Z,2.58
2022-08-11T11:27:07.982Z,3.42
2022-08-11T11:30:13.735Z,5.95
2022-08-11T11:33:20.387Z,5.25
2022-08-11T11:36:18.340Z,3.85
2022-08-11T11:38:50.574Z,4.78
2022-08-11T11:41:27.441Z,3.05
2022-08-11T11:44:01.650Z,4.68
2022-08-11T11:49:17.221Z,5.15
2022-08-11T11:51:53.094Z,2.80
2022-08-11T11:54:39.208Z,3.53
2022-08-11T11:57:28.374Z,7.38
2022-08-11T12:00:19.592Z,4.97
2022-08-11T12:02:50.857Z,4.13
2022-08-11T12:05:20.734Z,4.55
2022-08-11T12:08:10.572Z,2.60
2022-08-11T12:11:17.174Z,2.05
2022-08-11T12:13:58.558Z,5.25
2022-08-11T12:16:36.460Z,6.40
2022-08-11T12:19:14.797Z,3.75
2022-08-11T12:22:04.680Z,3.05
2022-08-11T12:24:55.800Z,4.05
2022-08-11T12:27:29.122Z,3.75
2022-08-11T12:30:07.706Z,3.78
2022-08-11T12:32:42.059Z,5.50
2022-08-11T12:35:19.160Z,6.13
2022-08-11T12:37:58.768Z,5.00
2022-08-11T12:44:07.215Z,9.25
2022-08-11T12:46:45.413Z,5.28
2022-08-11T12:49:45.205Z,4.03
2022-08-11T12:52:35.807Z,3.25
2022-08-11T12:56:03.764Z,3.65
2022-08-11T12:58:40.227Z,7.10
2022-08-11T13:01:37.741Z,4.55
2022-08-11T13:04:26.521Z,2.20
2022-08-11T13:07:08.282Z,3.97
2022-08-11T13:09:42.959Z,3.67
2022-08-11T13:12:35.167Z,3.25
2022-08-11T13:15:07.615Z,2.92
2022-08-11T13:17:40.449Z,4.32
2022-08-11T13:20:15.497Z,3.67
2022-08-11T13:22:46.993Z,3.72
2022-08-11T13:25:18.487Z,3.95
2022-08-11T13:30:51.150Z,1.55
2022-08-11T13:33:23.037Z,2.20
2022-08-11T13:35:56.747Z,1.98
2022-08-11T13:38:25.950Z,2.70
2022-08-11T13:41:31.776Z,7.07
2022-08-11T13:44:02.615Z,2.60
2022-08-11T13:46:30.336Z,1.80
2022-08-11T13:49:04.873Z,2.75
2022-08-11T13:51:36.731Z,1.33
2022-08-11T13:54:10.365Z,1.50
2022-08-11T13:56:46.325Z,6.15
2022-08-11T13:59:29.831Z,2.25
2022-08-11T14:02:28.175Z,5.22
2022-08-11T14:05:07.588Z,5.57
2022-08-11T14:07:53.370Z,1.58
2022-08-11T14:10:24.952Z,3.20
2022-08-11T14:13:42.569Z,4.93
2022-08-11T14:16:26.652Z,2.03
2022-08-11T14:19:03.681Z,2.65
2022-08-11T14:21:55.560Z,1.30
2022-08-11T14:24:25.511Z,3.08
2022-08-11T14:26:59.082Z,2.75
2022-08-11T14:29:31.579Z,3.97
2022-08-11T14:32:05.198Z,2.00
2022-08-11T14:34:37.043Z,2.60
2022-08-11T14:37:24.305Z,6.40
2022-08-11T14:40:02.920Z,2.78
2022-08-11T14:42:59.589Z,3.55
2022-08-11T14:45:58.410Z,4.25
2022-08-11T14:48:32.026Z,2.03
2022-08-11T14:51:02.176Z,2.03
2022-08-11T14:53:35.682Z,2.50
2022-08-11T14:56:30.997Z,3.00
2022-08-11T14:59:01.182Z,3.22
2022-08-11T15:01:47.824Z,2.05
2022-08-11T15:04:35.072Z,5.95
2022-08-11T15:07:17.076Z,1.58
2022-08-11T15:12:44.606Z,2.00
2022-08-11T15:15:31.823Z,4.15
2022-08-11T15:18:08.080Z,2.80
2022-08-11T15:20:57.715Z,1.67
2022-08-11T15:23:47.678Z,1.38
2022-08-11T15:26:59.594Z,0.73
2022-08-11T15:29:53.072Z,2.88
2022-08-11T15:32:45.661Z,5.50
2022-08-11T15:35:39.175Z,3.10
2022-08-11T15:38:16.357Z,2.67
2022-08-11T15:41:07.651Z,2.95
2022-08-11T15:44:13.669Z,3.20
2022-08-11T15:50:11.501Z,2.10
2022-08-11T15:52:52.226Z,4.32
2022-08-11T15:55:24.341Z,4.18
2022-08-11T15:58:16.971Z,1.73
2022-08-11T16:01:10.021Z,3.88
2022-08-11T16:04:14.408Z,3.67
2022-08-11T16:07:13.945Z,4.45
2022-08-11T16:10:13.988Z,7.00
2022-08-11T16:13:13.178Z,2.60
2022-08-11T16:16:06.697Z,8.90
2022-08-11T16:18:45.831Z,6.80
2022-08-11T16:21:36.124Z,2.15
2022-08-11T16:25:58.122Z,3.60
2022-08-11T16:27:13.046Z,1.63
2022-08-11T16:29:53.871Z,4.90
2022-08-11T16:32:30.550Z,3.63
2022-08-11T16:35:23.027Z,4.30
2022-08-11T16:38:13.742Z,2.40
2022-08-11T16:40:46.936Z,5.03
2022-08-11T16:43:37.959Z,6.85
2022-08-11T16:46:30.273Z,3.08
2022-08-11T16:49:02.539Z,1.65
2022-08-11T16:51:33.742Z,4.03
2022-08-11T16:54:06.136Z,3.13
2022-08-11T16:57:34.061Z,3.97
2022-08-11T17:00:10.388Z,5.45
2022-08-11T17:03:22.048Z,3.08
2022-08-11T17:06:12.012Z,1.83
2022-08-11T17:09:14.783Z,2.60
2022-08-11T17:12:14.021Z,2.50
2022-08-11T17:15:05.774Z,2.33
2022-08-11T17:18:08.526Z,4.55
2022-08-11T17:20:43.994Z,2.95
2022-08-11T17:26:24.252Z,4.05
2022-08-11T17:29:04.630Z,3.63
2022-08-11T17:32:09.576Z,5.22
2022-08-11T17:35:16.506Z,4.13
2022-08-11T17:37:46.923Z,4.07
2022-08-11T17:40:27.018Z,4.07
2022-08-11T17:43:19.066Z,3.40
2022-08-11T17:46:10.956Z,2.55
2022-08-11T17:48:47.975Z,8.02
2022-08-11T17:51:43.866Z,4.22
2022-08-11T17:54:37.020Z,2.90
2022-08-11T17:57:31.913Z,4.90
2022-08-11T18:00:00.694Z,4.47
2022-08-11T18:03:03.841Z,6.47
2022-08-11T18:05:37.468Z,4.88
2022-08-11T18:08:34.098Z,6.00
2022-08-11T18:12:10.311Z,3.83
2022-08-11T18:14:34.721Z,4.80
2022-08-11T18:17:22.890Z,5.25
2022-08-11T18:20:13.193Z,4.70
2022-08-11T18:23:03.864Z,5.32
2022-08-11T18:25:59.491Z,3.53
2022-08-11T18:28:55.314Z,6.88
2022-08-11T18:31:45.999Z,11.15
2022-08-11T18:34:38.117Z,11.20
2022-08-11T18:37:31.980Z,7.25
2022-08-11T18:40:28.899Z,4.68
2022-08-11T18:43:26.909Z,7.05
2022-08-11T18:46:27.953Z,4.93
2022-08-11T18:49:35.473Z,6.25
2022-08-11T18:52:38.366Z,4.15
2022-08-11T18:55:30.920Z,8.43
2022-08-11T18:58:31.610Z,6.20
2022-08-11T19:01:30.153Z,8.70
2022-08-11T19:04:19.163Z,6.05
2022-08-11T19:07:21.950Z,4.75
2022-08-11T19:10:20.962Z,5.78
2022-08-11T19:13:12.983Z,6.50
2022-08-11T19:16:02.925Z,6.03
2022-08-11T19:19:01.954Z,5.55
2022-08-11T19:24:41.008Z,4.90
2022-08-11T19:27:31.990Z,11.90
2022-08-11T19:30:22.966Z,10.77
2022-08-11T19:33:15.190Z,14.60
2022-08-11T19:36:13.241Z,13.18
2022-08-11T19:39:02.110Z,10.32
2022-08-11T19:41:56.736Z,13.15
2022-08-11T19:44:49.562Z,7.60
2022-08-11T19:47:42.980Z,11.55
2022-08-11T19:50:34.985Z,8.50
2022-08-11T19:53:28.200Z,8.25
2022-08-11T19:56:17.008Z,7.18
2022-08-11T19:59:14.014Z,11.38
2022-08-11T20:02:14.084Z,8.77
2022-08-11T20:05:03.997Z,7.18
2022-08-11T20:07:55.570Z,7.95
2022-08-11T20:10:48.816Z,10.38
2022-08-11T20:13:38.021Z,9.30
2022-08-11T20:16:33.235Z,6.33
2022-08-11T20:19:26.251Z,10.32
2022-08-11T20:22:35.600Z,9.60
2022-08-11T20:25:35.272Z,12.40
2022-08-11T20:28:33.107Z,19.05
2022-08-11T20:31:26.042Z,12.88
2022-08-11T20:34:17.091Z,11.68
2022-08-11T20:37:07.451Z,9.98
2022-08-11T20:40:04.183Z,14.48
2022-08-11T20:43:09.717Z,11.75
2022-08-11T20:46:27.290Z,10.60
2022-08-11T20:49:17.059Z,11.60
2022-08-11T20:52:23.296Z,11.00
2022-08-11T20:55:14.300Z,8.15
2022-08-11T20:58:18.219Z,13.02
2022-08-11T21:01:38.812Z,10.48
2022-08-11T21:04:27.057Z,12.73
2022-08-11T21:07:28.373Z,15.60
2022-08-11T21:10:23.786Z,12.77
2022-08-11T21:13:26.321Z,9.43
2022-08-11T21:20:07.965Z,21.73
2022-08-11T21:23:24.323Z,9.63
2022-08-11T21:26:21.119Z,9.50
2022-08-11T21:29:13.349Z,5.90
2022-08-11T21:32:03.225Z,10.18
2022-08-11T21:34:55.628Z,10.65
2022-08-11T21:37:46.177Z,8.52
2022-08-11T21:40:41.143Z,13.25
2022-08-11T21:43:54.134Z,11.48
2022-08-11T21:46:45.150Z,8.90
2022-08-11T21:49:35.120Z,12.07
2022-08-11T21:52:26.388Z,10.40
2022-08-11T21:55:16.146Z,8.02
2022-08-11T21:58:07.182Z,12.85
2022-08-11T22:00:58.139Z,11.20
2022-08-11T22:03:50.341Z,6.28
2022-08-11T22:06:43.439Z,7.95
2022-08-11T22:09:30.882Z,5.93
2022-08-11T22:12:34.410Z,8.20
2022-08-11T22:15:32.329Z,10.68
2022-08-11T22:18:23.532Z,10.23
2022-08-11T22:21:18.023Z,7.07
2022-08-11T22:24:29.959Z,6.80
2022-08-11T22:27:18.415Z,15.20
2022-08-11T22:30:08.250Z,13.95
2022-08-11T22:32:59.319Z,7.63
2022-08-11T22:35:52.542Z,13.20
2022-08-11T22:38:45.279Z,9.27
2022-08-11T22:41:34.429Z,11.25
2022-08-11T22:44:22.781Z,12.80
2022-08-11T22:47:14.465Z,13.50
2022-08-11T22:50:11.463Z,12.77
2022-08-11T22:53:02.350Z,20.00
2022-08-11T22:55:52.293Z,13.10
2022-08-11T22:58:42.496Z,10.38
2022-08-11T23:01:32.086Z,11.27
2022-08-11T23:04:22.271Z,15.85
2022-08-11T23:07:13.098Z,14.23
2022-08-11T23:10:24.456Z,9.57
2022-08-11T23:13:22.025Z,11.60
2022-08-11T23:16:17.380Z,11.50
2022-08-11T23:19:05.282Z,8.52
2022-08-11T23:21:56.251Z,10.98
2022-08-11T23:24:51.265Z,11.15
2022-08-11T23:27:41.598Z,11.05
2022-08-11T23:30:32.535Z,12.55
2022-08-11T23:33:24.332Z,11.82
2022-08-11T23:36:36.286Z,14.90
2022-08-11T23:39:30.153Z,8.85
2022-08-11T23:42:31.367Z,10.55
2022-08-11T23:45:26.322Z,9.48
2022-08-11T23:48:14.265Z,11.27
2022-08-11T23:51:04.120Z,10.02
2022-08-11T23:53:53.519Z,13.68
2022-08-11T23:56:42.293Z,9.90
2022-08-11T23:59:30.529Z,9.50
